Time;durP1;ratioP1;P1;durP2;ratioP2;P2;SDS_P1;SDS_P2;PMS_P1;PMS_P2;Temp;Humidity;BMP_temperature;BMP_pressure;BME280_temperature;BME280_humidity;BME280_pressure;Samples;Min_cycle;Max_cycle;Signal;HPM_P1;HPM_P2
2023/02/10 00:02:14;;;;;;;;;;;;;;;;;;6155397;23;19913;-80
2023/02/10 00:04:39;;;;;;;;;;;;;;;;;;6207701;23;19926;-79
2023/02/10 00:07:04;;;;;;;;;;;;;;;;;;6214464;23;19930;-79
2023/02/10 00:09:30;;;;;;;;;;;;;;;;;;6215512;23;19908;-78
2023/02/10 00:12:02;;;;;;;;;;;;;;;;;;6214104;23;20333;-76
2023/02/10 00:14:27;;;;;;;;;;;;;;;;;;6215776;23;19931;-79
2023/02/10 00:16:53;;;;;;;;;;;;;;;;;;6215210;23;19912;-79
2023/02/10 00:19:18;;;;;;;;;;;;;;;;;;6214108;23;20293;-79
2023/02/10 00:21:43;;;;;;;;;;;;;;;;;;6215740;23;19908;-79
2023/02/10 00:24:09;;;;;;;;;;;;;;;;;;6214451;23;19915;-80
2023/02/10 00:26:34;;;;;;;;;;;;;;;;;;6214525;23;19908;-79
2023/02/10 00:29:00;;;;;;;;;;;;;;;;;;6215265;23;19912;-79
2023/02/10 00:31:25;;;;;;;;;;;;;;;;;;6213815;23;19959;-79
2023/02/10 00:33:51;;;;;;;;;;;;;;;;;;6190477;23;19911;-79
2023/02/10 00:36:16;;;;;;;;;;;;;;;;;;6215137;23;19947;-80
2023/02/10 00:38:42;;;;;;;;;;;;;;;;;;6215519;23;19987;-79
2023/02/10 00:41:08;;;;;;;;;;;;;;;;;;6214664;23;20281;-79
2023/02/10 00:43:33;;;;;;;;;;;;;;;;;;6215368;23;19995;-79
2023/02/10 00:45:59;;;;;;;;;;;;;;;;;;6216031;23;19980;-79
2023/02/10 00:48:24;;;;;;;;;;;;;;;;;;6190001;23;19961;-79
2023/02/10 00:50:49;;;;;;;;;;;;;;;;;;6216464;23;19912;-79
2023/02/10 00:53:15;;;;;;;;;;;;;;;;;;6216425;23;19974;-79
2023/02/10 00:55:40;;;;;;;;;;;;;;;;;;6215686;23;20273;-80
2023/02/10 00:58:05;;;;;;;;;;;;;;;;;;6189877;23;19919;-80
2023/02/10 01:00:31;;;;;;;;;;;;;;;;;;6216727;23;19931;-79
2023/02/10 01:02:56;;;;;;;;;;;;;;;;;;6189993;23;20218;-80
2023/02/10 01:05:22;;;;;;;;;;;;;;;;;;6214748;23;19911;-79
2023/02/10 01:07:48;;;;;;;;;;;;;;;;;;6189801;23;19999;-80
2023/02/10 01:10:13;;;;;;;;;;;;;;;;;;6190019;23;20278;-78
2023/02/10 01:12:39;;;;;;;;;;;;;;;;;;6216044;23;19907;-79
2023/02/10 01:15:04;;;;;;;;;;;;;;;;;;6214480;23;20337;-79
2023/02/10 01:17:29;;;;;;;;;;;;;;;;;;6217137;23;19915;-79
2023/02/10 01:19:55;;;;;;;;;;;;;;;;;;6216828;23;20397;-79
2023/02/10 01:22:21;;;;;;;;;;;;;;;;;;6165082;23;19911;-80
2023/02/10 01:24:46;;;;;;;;;;;;;;;;;;6217009;23;19915;-81
2023/02/10 01:27:12;;;;;;;;;;;;;;;;;;6217905;23;19912;-81
2023/02/10 01:29:41;;;;;;;;;;;;;;;;;;6238029;23;19927;-82
2023/02/10 01:32:07;;;;;;;;;;;;;;;;;;6217317;23;19966;-78
2023/02/10 01:34:33;;;;;;;;;;;;;;;;;;6189840;23;19908;-79
2023/02/10 01:36:59;;;;;;;;;;;;;;;;;;6216016;23;19994;-78
2023/02/10 01:39:24;;;;;;;;;;;;;;;;;;6190095;23;19908;-78
2023/02/10 01:41:50;;;;;;;;;;;;;;;;;;6216726;23;19912;-79
2023/02/10 01:44:15;;;;;;;;;;;;;;;;;;6189269;23;19934;-79
2023/02/10 01:46:40;;;;;;;;;;;;;;;;;;6216560;23;19999;-79
2023/02/10 01:49:06;;;;;;;;;;;;;;;;;;6215265;23;19934;-79
2023/02/10 01:51:31;;;;;;;;;;;;;;;;;;6216301;23;19938;-78
2023/02/10 01:53:57;;;;;;;;;;;;;;;;;;6214640;23;19942;-79
2023/02/10 01:56:24;;;;;;;;;;;;;;;;;;6214379;23;19908;-79
2023/02/10 01:58:49;;;;;;;;;;;;;;;;;;6214307;23;19978;-80
2023/02/10 02:01:15;;;;;;;;;;;;;;;;;;6214385;23;19908;-79
2023/02/10 02:03:41;;;;;;;;;;;;;;;;;;6213763;23;19970;-78
2023/02/10 02:06:07;;;;;;;;;;;;;;;;;;6189526;23;19904;-79
2023/02/10 02:08:32;;;;;;;;;;;;;;;;;;6214634;23;19908;-80
2023/02/10 02:10:59;;;;;;;;;;;;;;;;;;6165190;23;19919;-78
2023/02/10 02:13:24;;;;;;;;;;;;;;;;;;6216059;23;19907;-79
2023/02/10 02:15:50;;;;;;;;;;;;;;;;;;6189546;23;20357;-79
2023/02/10 02:18:15;;;;;;;;;;;;;;;;;;6216649;23;19908;-79
2023/02/10 02:20:41;;;;;;;;;;;;;;;;;;6215295;23;20352;-79
2023/02/10 02:23:06;;;;;;;;;;;;;;;;;;6216446;23;19995;-79
2023/02/10 02:25:31;;;;;;;;;;;;;;;;;;6215906;23;19908;-79
2023/02/10 02:27:57;;;;;;;;;;;;;;;;;;6216154;23;19912;-78
2023/02/10 02:30:23;;;;;;;;;;;;;;;;;;6190517;23;19911;-79
2023/02/10 02:32:48;;;;;;;;;;;;;;;;;;6217423;23;19908;-79
2023/02/10 02:35:14;;;;;;;;;;;;;;;;;;6191251;23;19908;-79
2023/02/10 02:37:39;;;;;;;;;;;;;;;;;;6219970;23;20326;-79
2023/02/10 02:40:04;;;;;;;;;;;;;;;;;;6218900;23;19954;-78
2023/02/10 02:42:30;;;;;;;;;;;;;;;;;;6193529;23;19915;-78
2023/02/10 02:44:56;;;;;;;;;;;;;;;;;;6221548;23;19935;-79
2023/02/10 02:47:22;;;;;;;;;;;;;;;;;;6222162;23;20300;-78
2023/02/10 02:49:47;;;;;;;;;;;;;;;;;;6221756;23;19959;-78
2023/02/10 02:52:13;;;;;;;;;;;;;;;;;;6223954;23;19908;-78
2023/02/10 02:54:38;;;;;;;;;;;;;;;;;;6196766;23;19962;-78
2023/02/10 02:57:04;;;;;;;;;;;;;;;;;;6220390;23;19908;-78
2023/02/10 02:59:29;;;;;;;;;;;;;;;;;;6219037;23;19961;-78
2023/02/10 03:01:54;;;;;;;;;;;;;;;;;;6216968;23;20409;-79
2023/02/10 03:04:20;;;;;;;;;;;;;;;;;;6217672;23;19912;-79
2023/02/10 03:06:46;;;;;;;;;;;;;;;;;;6219399;23;19911;-79
2023/02/10 03:09:11;;;;;;;;;;;;;;;;;;6221423;23;20398;-77
2023/02/10 03:11:37;;;;;;;;;;;;;;;;;;6221340;23;19987;-78
2023/02/10 03:14:02;;;;;;;;;;;;;;;;;;6226092;23;19915;-77
2023/02/10 03:16:27;;;;;;;;;;;;;;;;;;6224804;23;19908;-79
2023/02/10 03:18:53;;;;;;;;;;;;;;;;;;6223839;23;20333;-78
2023/02/10 03:21:18;;;;;;;;;;;;;;;;;;6226395;23;19932;-79
2023/02/10 03:23:43;;;;;;;;;;;;;;;;;;6223069;23;19908;-80
2023/02/10 03:26:09;;;;;;;;;;;;;;;;;;6216477;23;19979;-80
2023/02/10 03:28:34;;;;;;;;;;;;;;;;;;6215824;23;20325;-79
2023/02/10 03:30:59;;;;;;;;;;;;;;;;;;6216368;23;20002;-79
2023/02/10 03:33:25;;;;;;;;;;;;;;;;;;6216485;23;19908;-79
2023/02/10 03:35:50;;;;;;;;;;;;;;;;;;6214418;23;19904;-79
2023/02/10 03:38:16;;;;;;;;;;;;;;;;;;6214598;23;19918;-80
2023/02/10 03:40:41;;;;;;;;;;;;;;;;;;6216460;23;19915;-79
2023/02/10 03:43:06;;;;;;;;;;;;;;;;;;6216896;23;19908;-79
2023/02/10 03:45:32;;;;;;;;;;;;;;;;;;6216220;23;20246;-78
2023/02/10 03:47:58;;;;;;;;;;;;;;;;;;6190001;23;19908;-78
2023/02/10 03:50:24;;;;;;;;;;;;;;;;;;6215402;23;19912;-79
2023/02/10 03:52:49;;;;;;;;;;;;;;;;;;6215229;23;20365;-78
2023/02/10 03:55:17;;;;;;;;;;;;;;;;;;6213360;23;19908;-78
2023/02/10 03:57:42;;;;;;;;;;;;;;;;;;6213710;23;19904;-79
2023/02/10 04:00:08;;;;;;;;;;;;;;;;;;6187578;23;19914;-77
2023/02/10 04:02:38;;;;;;;;;;;;;;;;;;6214573;23;19936;-79
2023/02/10 04:05:03;;;;;;;;;;;;;;;;;;6213253;23;20341;-78
2023/02/10 04:07:28;;;;;;;;;;;;;;;;;;6215154;23;19927;-78
2023/02/10 04:09:54;;;;;;;;;;;;;;;;;;6213781;23;20404;-78
2023/02/10 04:12:19;;;;;;;;;;;;;;;;;;6214062;23;19908;-78
2023/02/10 04:14:44;;;;;;;;;;;;;;;;;;6212553;23;19908;-78
2023/02/10 04:17:10;;;;;;;;;;;;;;;;;;6215110;23;19975;-79
2023/02/10 04:19:35;;;;;;;;;;;;;;;;;;6214852;23;19918;-79
2023/02/10 04:22:00;;;;;;;;;;;;;;;;;;6213596;23;20326;-78
2023/02/10 04:24:26;;;;;;;;;;;;;;;;;;6214793;23;19979;-79
2023/02/10 04:26:51;;;;;;;;;;;;;;;;;;6213484;23;20360;-79
2023/02/10 04:29:17;;;;;;;;;;;;;;;;;;6213339;23;19947;-78
2023/02/10 04:31:42;;;;;;;;;;;;;;;;;;6188633;23;19912;-79
2023/02/10 04:34:07;;;;;;;;;;;;;;;;;;6212908;23;19908;-79
2023/02/10 04:36:33;;;;;;;;;;;;;;;;;;6214381;23;19989;-80
2023/02/10 04:38:58;;;;;;;;;;;;;;;;;;6214063;23;19940;-80
2023/02/10 04:41:23;;;;;;;;;;;;;;;;;;6215503;23;19908;-79
2023/02/10 04:43:49;;;;;;;;;;;;;;;;;;6188937;23;19908;-79
2023/02/10 04:46:14;;;;;;;;;;;;;;;;;;6215214;23;19907;-79
2023/02/10 04:48:40;;;;;;;;;;;;;;;;;;6188268;23;19935;-80
2023/02/10 04:51:05;;;;;;;;;;;;;;;;;;6214330;23;20022;-78
2023/02/10 04:53:33;;;;;;;;;;;;;;;;;;6196935;23;19908;-77
2023/02/10 04:55:59;;;;;;;;;;;;;;;;;;6187757;23;19904;-79
2023/02/10 04:58:24;;;;;;;;;;;;;;;;;;6214547;23;20285;-80
2023/02/10 05:00:49;;;;;;;;;;;;;;;;;;6214447;23;19912;-79
2023/02/10 05:03:15;;;;;;;;;;;;;;;;;;6212698;23;20322;-78
2023/02/10 05:05:40;;;;;;;;;;;;;;;;;;6212560;23;19987;-78
2023/02/10 05:08:06;;;;;;;;;;;;;;;;;;6214813;23;19908;-79
2023/02/10 05:10:31;;;;;;;;;;;;;;;;;;6214442;23;19912;-79
2023/02/10 05:12:57;;;;;;;;;;;;;;;;;;6214474;23;19951;-79
2023/02/10 05:15:22;;;;;;;;;;;;;;;;;;6213371;23;19936;-80
2023/02/10 05:17:48;;;;;;;;;;;;;;;;;;6213815;23;19908;-79
2023/02/10 05:20:13;;;;;;;;;;;;;;;;;;6216655;23;20353;-79
2023/02/10 05:22:39;;;;;;;;;;;;;;;;;;6216820;23;19908;-79
2023/02/10 05:25:04;;;;;;;;;;;;;;;;;;6188961;23;19954;-79
2023/02/10 05:27:30;;;;;;;;;;;;;;;;;;6165337;23;19908;-79
2023/02/10 05:29:55;;;;;;;;;;;;;;;;;;6190969;23;19938;-78
2023/02/10 05:32:20;;;;;;;;;;;;;;;;;;6215801;23;19912;-79
2023/02/10 05:34:46;;;;;;;;;;;;;;;;;;6216797;23;19939;-79
2023/02/10 05:37:11;;;;;;;;;;;;;;;;;;6215663;23;20341;-78
2023/02/10 05:39:37;;;;;;;;;;;;;;;;;;6190262;23;19908;-78
2023/02/10 05:42:02;;;;;;;;;;;;;;;;;;6217236;23;19939;-79
2023/02/10 05:44:27;;;;;;;;;;;;;;;;;;6217575;23;19962;-80
2023/02/10 05:46:53;;;;;;;;;;;;;;;;;;6216919;23;20223;-78
2023/02/10 05:49:18;;;;;;;;;;;;;;;;;;6216255;23;20413;-79
2023/02/10 05:51:44;;;;;;;;;;;;;;;;;;6215952;23;20022;-79
2023/02/10 05:54:09;;;;;;;;;;;;;;;;;;6190248;23;20397;-79
2023/02/10 05:56:34;;;;;;;;;;;;;;;;;;6217066;23;19983;-79
2023/02/10 05:59:00;;;;;;;;;;;;;;;;;;6215727;23;19908;-80
2023/02/10 06:01:25;;;;;;;;;;;;;;;;;;6217265;23;19915;-80
2023/02/10 06:03:51;;;;;;;;;;;;;;;;;;6184241;23;19920;-79
2023/02/10 06:06:16;;;;;;;;;;;;;;;;;;6171614;23;19931;-79
2023/02/10 06:08:42;;;;;;;;;;;;;;;;;;6169124;23;19932;-79
2023/02/10 06:11:08;;;;;;;;;;;;;;;;;;6193312;23;19912;-80
2023/02/10 06:13:33;;;;;;;;;;;;;;;;;;6193527;23;19909;-79
2023/02/10 06:16:01;;;;;;;;;;;;;;;;;;6195422;23;20315;-80
2023/02/10 06:18:26;;;;;;;;;;;;;;;;;;6198126;23;19908;-80
2023/02/10 06:20:52;;;;;;;;;;;;;;;;;;6174770;23;19915;-79
2023/02/10 06:23:19;;;;;;;;;;;;;;;;;;6197261;23;19979;-79
2023/02/10 06:25:45;;;;;;;;;;;;;;;;;;6172632;23;20006;-79
2023/02/10 06:28:10;;;;;;;;;;;;;;;;;;6172665;23;20293;-80
2023/02/10 06:30:36;;;;;;;;;;;;;;;;;;6196904;23;19912;-79
2023/02/10 06:33:02;;;;;;;;;;;;;;;;;;6172938;23;19959;-80
2023/02/10 06:35:28;;;;;;;;;;;;;;;;;;6197914;23;19919;-79
2023/02/10 06:37:53;;;;;;;;;;;;;;;;;;6173546;23;19967;-79
2023/02/10 06:40:19;;;;;;;;;;;;;;;;;;6173023;23;19908;-79
2023/02/10 06:42:44;;;;;;;;;;;;;;;;;;6200457;23;20231;-79
2023/02/10 06:45:10;;;;;;;;;;;;;;;;;;6196019;23;19908;-79
2023/02/10 06:47:35;;;;;;;;;;;;;;;;;;6194685;23;19965;-80
2023/02/10 06:50:01;;;;;;;;;;;;;;;;;;6197291;23;20002;-80
2023/02/10 06:52:26;;;;;;;;;;;;;;;;;;6198421;23;19908;-81
2023/02/10 06:54:52;;;;;;;;;;;;;;;;;;6196207;23;19915;-80
2023/02/10 06:57:18;;;;;;;;;;;;;;;;;;6191378;23;19908;-80
2023/02/10 06:59:43;;;;;;;;;;;;;;;;;;6196246;23;19908;-79
2023/02/10 07:02:09;;;;;;;;;;;;;;;;;;6168172;23;19916;-79
2023/02/10 07:04:35;;;;;;;;;;;;;;;;;;6166207;23;19916;-80
2023/02/10 07:07:00;;;;;;;;;;;;;;;;;;6190487;23;19908;-80
2023/02/10 07:09:26;;;;;;;;;;;;;;;;;;6169777;23;19909;-80
2023/02/10 07:11:52;;;;;;;;;;;;;;;;;;6168270;23;19913;-79
2023/02/10 07:14:17;;;;;;;;;;;;;;;;;;6192726;23;19908;-80
2023/02/10 07:16:43;;;;;;;;;;;;;;;;;;6166757;23;19915;-80
2023/02/10 07:19:09;;;;;;;;;;;;;;;;;;6165649;23;19935;-79
2023/02/10 07:21:34;;;;;;;;;;;;;;;;;;6193408;23;19913;-79
2023/02/10 07:24:01;;;;;;;;;;;;;;;;;;6141534;23;19986;-79
2023/02/10 07:26:30;;;;;;;;;;;;;;;;;;6189966;23;20219;-80
2023/02/10 07:28:55;;;;;;;;;;;;;;;;;;6190776;23;19935;-78
2023/02/10 07:31:21;;;;;;;;;;;;;;;;;;6190601;23;19932;-78
2023/02/10 07:33:47;;;;;;;;;;;;;;;;;;6162584;23;19908;-78
2023/02/10 07:36:12;;;;;;;;;;;;;;;;;;6189154;23;19908;-78
2023/02/10 07:38:38;;;;;;;;;;;;;;;;;;6165909;23;19909;-78
2023/02/10 07:41:03;;;;;;;;;;;;;;;;;;6167372;23;19951;-78
2023/02/10 07:43:29;;;;;;;;;;;;;;;;;;6169168;23;19908;-78
2023/02/10 07:46:02;;;;;;;;;;;;;;;;;;6171174;23;20318;-79
2023/02/10 07:48:27;;;;;;;;;;;;;;;;;;6148058;23;19912;-79
2023/02/10 07:50:53;;;;;;;;;;;;;;;;;;6171455;23;19912;-80
2023/02/10 07:53:19;;;;;;;;;;;;;;;;;;6170224;23;19938;-79
2023/02/10 07:55:45;;;;;;;;;;;;;;;;;;6194834;23;19908;-79
2023/02/10 07:58:10;;;;;;;;;;;;;;;;;;6192122;23;19984;-79
2023/02/10 08:00:36;;;;;;;;;;;;;;;;;;6139613;23;19908;-78
2023/02/10 08:03:02;;;;;;;;;;;;;;;;;;6166400;23;19940;-78
2023/02/10 08:05:28;;;;;;;;;;;;;;;;;;6163263;23;19920;-78
2023/02/10 08:07:53;;;;;;;;;;;;;;;;;;6164211;23;19909;-79
2023/02/10 08:10:19;;;;;;;;;;;;;;;;;;6188045;23;19918;-79
2023/02/10 08:12:46;;;;;;;;;;;;;;;;;;6187211;23;20417;-79
2023/02/10 08:15:11;;;;;;;;;;;;;;;;;;6189388;23;19946;-79
2023/02/10 08:17:39;;;;;;;;;;;;;;;;;;6162503;23;19909;-79
2023/02/10 08:20:05;;;;;;;;;;;;;;;;;;6187036;23;19988;-79
2023/02/10 08:22:34;;;;;;;;;;;;;;;;;;6162040;23;19908;-79
2023/02/10 08:24:59;;;;;;;;;;;;;;;;;;6189018;23;19909;-79
2023/02/10 08:27:25;;;;;;;;;;;;;;;;;;6185976;23;19908;-78
2023/02/10 08:29:51;;;;;;;;;;;;;;;;;;6186055;23;19958;-79
2023/02/10 08:32:18;;;;;;;;;;;;;;;;;;6162284;23;19959;-79
2023/02/10 08:34:44;;;;;;;;;;;;;;;;;;6189104;23;19959;-79
2023/02/10 08:37:09;;;;;;;;;;;;;;;;;;6163261;23;19912;-79
2023/02/10 08:39:35;;;;;;;;;;;;;;;;;;6161425;23;19908;-79
2023/02/10 08:42:03;;;;;;;;;;;;;;;;;;6160576;23;20047;-78
2023/02/10 08:44:29;;;;;;;;;;;;;;;;;;6160419;23;19964;-79
2023/02/10 08:46:54;;;;;;;;;;;;;;;;;;6184811;23;19966;-79
2023/02/10 08:49:22;;;;;;;;;;;;;;;;;;6187482;23;20250;-79
2023/02/10 08:51:47;;;;;;;;;;;;;;;;;;6161157;23;19919;-79
2023/02/10 08:54:13;;;;;;;;;;;;;;;;;;6187149;23;19908;-79
2023/02/10 08:56:39;;;;;;;;;;;;;;;;;;6189262;23;19931;-79
2023/02/10 08:59:04;;;;;;;;;;;;;;;;;;6187659;23;20230;-79
2023/02/10 09:01:30;;;;;;;;;;;;;;;;;;6190167;23;20278;-79
2023/02/10 09:03:56;;;;;;;;;;;;;;;;;;6163050;23;19919;-79
2023/02/10 09:06:21;;;;;;;;;;;;;;;;;;6190005;23;20246;-79
2023/02/10 09:08:47;;;;;;;;;;;;;;;;;;6190596;23;19909;-79
2023/02/10 09:11:13;;;;;;;;;;;;;;;;;;6163381;23;19912;-79
2023/02/10 09:13:38;;;;;;;;;;;;;;;;;;6162282;23;19916;-78
2023/02/10 09:16:04;;;;;;;;;;;;;;;;;;6162988;23;19912;-78
2023/02/10 09:18:29;;;;;;;;;;;;;;;;;;6189813;23;19995;-78
2023/02/10 09:20:55;;;;;;;;;;;;;;;;;;6164239;23;19962;-80
2023/02/10 09:23:20;;;;;;;;;;;;;;;;;;6191810;23;19908;-79
2023/02/10 09:25:46;;;;;;;;;;;;;;;;;;6189564;23;19957;-79
2023/02/10 09:28:11;;;;;;;;;;;;;;;;;;6193009;23;19908;-79
2023/02/10 09:30:37;;;;;;;;;;;;;;;;;;6192103;23;20246;-79
2023/02/10 09:33:02;;;;;;;;;;;;;;;;;;6164796;23;20039;-79
2023/02/10 09:35:28;;;;;;;;;;;;;;;;;;6164747;23;19931;-79
2023/02/10 09:37:53;;;;;;;;;;;;;;;;;;6166427;23;19908;-80
2023/02/10 09:40:19;;;;;;;;;;;;;;;;;;6192446;23;19916;-80
2023/02/10 09:42:44;;;;;;;;;;;;;;;;;;6168475;23;19927;-80
2023/02/10 09:45:10;;;;;;;;;;;;;;;;;;6192083;23;19956;-79
2023/02/10 09:47:36;;;;;;;;;;;;;;;;;;6196691;23;19908;-79
2023/02/10 09:50:01;;;;;;;;;;;;;;;;;;6193888;23;19952;-78
2023/02/10 09:52:26;;;;;;;;;;;;;;;;;;6194818;23;19991;-79
2023/02/10 09:54:52;;;;;;;;;;;;;;;;;;6193303;23;19908;-79
2023/02/10 09:57:18;;;;;;;;;;;;;;;;;;6199822;23;19908;-79
2023/02/10 09:59:43;;;;;;;;;;;;;;;;;;6196315;23;19944;-79
2023/02/10 10:02:09;;;;;;;;;;;;;;;;;;6191069;23;19908;-80
2023/02/10 10:04:34;;;;;;;;;;;;;;;;;;6190800;23;19916;-80
2023/02/10 10:07:05;;;;;;;;;;;;;;;;;;6187833;23;19908;-80
2023/02/10 10:09:31;;;;;;;;;;;;;;;;;;6186907;23;20367;-79
2023/02/10 10:11:56;;;;;;;;;;;;;;;;;;6161983;23;19916;-80
2023/02/10 10:14:22;;;;;;;;;;;;;;;;;;6162063;23;20223;-80
2023/02/10 10:16:47;;;;;;;;;;;;;;;;;;6161916;23;19915;-80
2023/02/10 10:19:13;;;;;;;;;;;;;;;;;;6162350;23;19927;-80
2023/02/10 10:21:38;;;;;;;;;;;;;;;;;;6186466;23;19987;-80
2023/02/10 10:24:04;;;;;;;;;;;;;;;;;;6163079;23;19916;-80
2023/02/10 10:26:29;;;;;;;;;;;;;;;;;;6188704;23;19936;-80
2023/02/10 10:28:55;;;;;;;;;;;;;;;;;;6163457;23;19915;-80
2023/02/10 10:31:21;;;;;;;;;;;;;;;;;;6162971;23;20297;-79
2023/02/10 10:33:46;;;;;;;;;;;;;;;;;;6162958;23;19915;-80
2023/02/10 10:36:12;;;;;;;;;;;;;;;;;;6139137;23;19932;-80
2023/02/10 10:38:38;;;;;;;;;;;;;;;;;;6189078;23;19908;-80
2023/02/10 10:41:03;;;;;;;;;;;;;;;;;;6190883;23;19908;-80
2023/02/10 10:43:29;;;;;;;;;;;;;;;;;;6167439;23;19908;-80
2023/02/10 10:45:54;;;;;;;;;;;;;;;;;;6198031;23;19912;-80
2023/02/10 10:48:25;;;;;;;;;;;;;;;;;;6200693;23;19948;-80
2023/02/10 10:50:50;;;;;;;;;;;;;;;;;;6202760;23;19902;-80
2023/02/10 10:53:16;;;;;;;;;;;;;;;;;;6200044;23;19932;-79
2023/02/10 10:55:42;;;;;;;;;;;;;;;;;;6196881;23;19908;-80
2023/02/10 10:58:07;;;;;;;;;;;;;;;;;;6197001;23;19904;-80
2023/02/10 11:00:33;;;;;;;;;;;;;;;;;;6193025;23;19908;-80
2023/02/10 11:02:58;;;;;;;;;;;;;;;;;;6191482;23;19956;-80
2023/02/10 11:05:24;;;;;;;;;;;;;;;;;;6196141;23;19923;-80
2023/02/10 11:07:52;;;;;;;;;;;;;;;;;;6195282;23;19955;-80
2023/02/10 11:10:18;;;;;;;;;;;;;;;;;;6169004;23;19908;-78
2023/02/10 11:12:43;;;;;;;;;;;;;;;;;;6194090;23;19997;-78
2023/02/10 11:15:09;;;;;;;;;;;;;;;;;;6190633;23;19912;-78
2023/02/10 11:17:35;;;;;;;;;;;;;;;;;;6166404;23;19948;-79
2023/02/10 11:20:00;;;;;;;;;;;;;;;;;;6191640;23;19987;-78
2023/02/10 11:22:26;;;;;;;;;;;;;;;;;;6189875;23;20261;-78
2023/02/10 11:24:51;;;;;;;;;;;;;;;;;;6163065;23;20258;-79
2023/02/10 11:27:17;;;;;;;;;;;;;;;;;;6185314;23;20301;-78
2023/02/10 11:29:42;;;;;;;;;;;;;;;;;;6185537;23;19908;-79
2023/02/10 11:32:08;;;;;;;;;;;;;;;;;;6185435;23;19916;-79
2023/02/10 11:34:34;;;;;;;;;;;;;;;;;;6159800;23;19912;-78
2023/02/10 11:37:00;;;;;;;;;;;;;;;;;;6185645;23;19987;-79
2023/02/10 11:39:25;;;;;;;;;;;;;;;;;;6161459;23;19909;-79
2023/02/10 11:41:57;;;;;;;;;;;;;;;;;;6192119;23;19983;-79
2023/02/10 11:44:22;;;;;;;;;;;;;;;;;;6165478;23;19912;-80
2023/02/10 11:46:48;;;;;;;;;;;;;;;;;;6190031;23;20249;-80
2023/02/10 11:49:13;;;;;;;;;;;;;;;;;;6144075;23;19912;-79
2023/02/10 11:51:39;;;;;;;;;;;;;;;;;;6192492;23;19912;-81
2023/02/10 11:54:05;;;;;;;;;;;;;;;;;;6172047;23;20412;-81
2023/02/10 11:59:15;;;;;;;;;;;;;;;;;;6161991;23;20356;-78
2023/02/10 12:01:41;;;;;;;;;;;;;;;;;;6161271;23;19935;-78
2023/02/10 12:04:06;;;;;;;;;;;;;;;;;;6159970;23;20318;-78
2023/02/10 12:06:32;;;;;;;;;;;;;;;;;;6185648;23;19912;-78
2023/02/10 12:08:57;;;;;;;;;;;;;;;;;;6184565;23;19912;-78
2023/02/10 12:11:22;;;;;;;;;;;;;;;;;;6185606;23;19912;-78
2023/02/10 12:13:48;;;;;;;;;;;;;;;;;;6187088;23;20321;-78
2023/02/10 12:16:13;;;;;;;;;;;;;;;;;;6187591;23;19912;-78
2023/02/10 12:18:39;;;;;;;;;;;;;;;;;;6162979;23;19909;-78
2023/02/10 12:21:04;;;;;;;;;;;;;;;;;;6185266;23;19968;-78
2023/02/10 12:23:30;;;;;;;;;;;;;;;;;;6185676;23;19928;-78
2023/02/10 12:25:55;;;;;;;;;;;;;;;;;;6187132;23;19908;-78
2023/02/10 12:28:21;;;;;;;;;;;;;;;;;;6187394;23;20234;-78
2023/02/10 12:30:46;;;;;;;;;;;;;;;;;;6188346;23;20000;-78
2023/02/10 12:33:12;;;;;;;;;;;;;;;;;;6187962;23;19908;-78
2023/02/10 12:35:38;;;;;;;;;;;;;;;;;;6187398;23;19916;-78
2023/02/10 12:38:04;;;;;;;;;;;;;;;;;;6186476;23;19908;-78
2023/02/10 12:40:29;;;;;;;;;;;;;;;;;;6188288;23;19908;-78
2023/02/10 12:42:54;;;;;;;;;;;;;;;;;;6187359;23;19912;-78
2023/02/10 12:45:20;;;;;;;;;;;;;;;;;;6187144;23;19909;-78
2023/02/10 12:47:45;;;;;;;;;;;;;;;;;;6186769;23;19915;-78
2023/02/10 12:50:11;;;;;;;;;;;;;;;;;;6188903;23;19910;-78
2023/02/10 12:52:36;;;;;;;;;;;;;;;;;;6188448;23;20294;-78
2023/02/10 12:55:02;;;;;;;;;;;;;;;;;;6160759;23;19908;-78
2023/02/10 12:57:27;;;;;;;;;;;;;;;;;;6186811;23;19979;-78
2023/02/10 12:59:53;;;;;;;;;;;;;;;;;;6162241;23;19908;-78
2023/02/10 13:02:18;;;;;;;;;;;;;;;;;;6161565;23;19908;-78
2023/02/10 13:04:45;;;;;;;;;;;;;;;;;;6161413;23;19916;-79
2023/02/10 13:07:10;;;;;;;;;;;;;;;;;;6162872;23;19912;-79
2023/02/10 13:09:36;;;;;;;;;;;;;;;;;;6187094;23;20360;-78
2023/02/10 13:12:02;;;;;;;;;;;;;;;;;;6186663;23;19995;-78
2023/02/10 13:14:27;;;;;;;;;;;;;;;;;;6187423;23;19996;-78
2023/02/10 13:16:53;;;;;;;;;;;;;;;;;;6186801;23;19908;-79
2023/02/10 13:19:19;;;;;;;;;;;;;;;;;;6187209;23;19983;-78
2023/02/10 13:21:45;;;;;;;;;;;;;;;;;;6186756;23;19964;-79
2023/02/10 13:24:10;;;;;;;;;;;;;;;;;;6162067;23;19999;-79
2023/02/10 13:26:36;;;;;;;;;;;;;;;;;;6161555;23;19919;-80
2023/02/10 13:29:01;;;;;;;;;;;;;;;;;;6185941;23;20004;-80
2023/02/10 13:31:27;;;;;;;;;;;;;;;;;;6187689;23;19914;-80
2023/02/10 13:33:52;;;;;;;;;;;;;;;;;;6189077;23;19931;-80
2023/02/10 13:36:20;;;;;;;;;;;;;;;;;;6188040;23;19908;-79
2023/02/10 13:38:45;;;;;;;;;;;;;;;;;;6186609;23;19908;-80
2023/02/10 13:43:55;;;;;;;;;;;;;;;;;;6197405;23;19915;-81
2023/02/10 13:46:21;;;;;;;;;;;;;;;;;;6171948;23;19948;-80
2023/02/10 13:48:47;;;;;;;;;;;;;;;;;;6189511;23;19915;-80
2023/02/10 13:51:13;;;;;;;;;;;;;;;;;;6165617;23;19936;-80
2023/02/10 13:53:39;;;;;;;;;;;;;;;;;;6188276;23;19915;-80
2023/02/10 13:56:05;;;;;;;;;;;;;;;;;;6188722;23;19987;-80
2023/02/10 13:58:30;;;;;;;;;;;;;;;;;;6188441;23;19908;-80
2023/02/10 14:00:56;;;;;;;;;;;;;;;;;;6162958;23;19909;-79
2023/02/10 14:03:21;;;;;;;;;;;;;;;;;;6163470;23;19961;-80
2023/02/10 14:05:47;;;;;;;;;;;;;;;;;;6162708;23;19912;-80
2023/02/10 14:08:12;;;;;;;;;;;;;;;;;;6163272;23;20326;-79
2023/02/10 14:10:38;;;;;;;;;;;;;;;;;;6163452;23;19918;-80
2023/02/10 14:13:04;;;;;;;;;;;;;;;;;;6164518;23;19912;-80
2023/02/10 14:15:30;;;;;;;;;;;;;;;;;;6189389;23;19908;-80
2023/02/10 14:17:57;;;;;;;;;;;;;;;;;;6187624;23;19914;-79
2023/02/10 14:20:22;;;;;;;;;;;;;;;;;;6191671;23;19908;-80
2023/02/10 14:22:48;;;;;;;;;;;;;;;;;;6191056;23;19912;-80
2023/02/10 14:25:13;;;;;;;;;;;;;;;;;;6191061;23;19908;-79
2023/02/10 14:27:39;;;;;;;;;;;;;;;;;;6188105;23;19908;-79
2023/02/10 14:30:04;;;;;;;;;;;;;;;;;;6189003;23;19919;-80
2023/02/10 14:32:30;;;;;;;;;;;;;;;;;;6188730;23;19916;-79
2023/02/10 14:34:56;;;;;;;;;;;;;;;;;;6189639;23;19931;-78
2023/02/10 14:37:22;;;;;;;;;;;;;;;;;;6164093;23;20350;-79
2023/02/10 14:39:47;;;;;;;;;;;;;;;;;;6163893;23;19964;-80
2023/02/10 14:42:13;;;;;;;;;;;;;;;;;;6187653;23;19987;-80
2023/02/10 14:44:38;;;;;;;;;;;;;;;;;;6163253;23;19919;-79
2023/02/10 14:47:04;;;;;;;;;;;;;;;;;;6188132;23;20368;-79
2023/02/10 14:49:35;;;;;;;;;;;;;;;;;;6163927;23;19960;-79
2023/02/10 14:52:00;;;;;;;;;;;;;;;;;;6188239;23;19912;-79
2023/02/10 14:54:26;;;;;;;;;;;;;;;;;;6187677;23;19905;-79
2023/02/10 14:56:51;;;;;;;;;;;;;;;;;;6187911;23;19912;-79
2023/02/10 14:59:17;;;;;;;;;;;;;;;;;;6163189;23;19909;-80
2023/02/10 15:01:42;;;;;;;;;;;;;;;;;;6194376;23;19948;-79
2023/02/10 15:04:08;;;;;;;;;;;;;;;;;;6166787;23;19920;-78
2023/02/10 15:06:33;;;;;;;;;;;;;;;;;;6167585;23;19909;-78
2023/02/10 15:08:59;;;;;;;;;;;;;;;;;;6170302;23;19924;-79
2023/02/10 15:14:09;;;;;;;;;;;;;;;;;;6191792;23;20086;-78
2023/02/10 15:16:34;;;;;;;;;;;;;;;;;;6168719;23;19915;-77
2023/02/10 15:19:00;;;;;;;;;;;;;;;;;;6191754;23;19914;-78
2023/02/10 15:21:26;;;;;;;;;;;;;;;;;;6190829;23;20322;-78
2023/02/10 15:23:51;;;;;;;;;;;;;;;;;;6190655;23;19908;-78
2023/02/10 15:26:21;;;;;;;;;;;;;;;;;;6165306;23;20318;-78
2023/02/10 15:28:47;;;;;;;;;;;;;;;;;;6192319;23;19915;-78
2023/02/10 15:31:13;;;;;;;;;;;;;;;;;;6165321;23;19952;-79
2023/02/10 15:33:38;;;;;;;;;;;;;;;;;;6189074;23;19947;-78
2023/02/10 15:36:04;;;;;;;;;;;;;;;;;;6189836;23;19908;-78
2023/02/10 15:38:30;;;;;;;;;;;;;;;;;;6191647;23;19959;-78
2023/02/10 15:40:55;;;;;;;;;;;;;;;;;;6192503;23;20247;-79
2023/02/10 15:43:24;;;;;;;;;;;;;;;;;;6170443;23;19908;-79
2023/02/10 15:45:50;;;;;;;;;;;;;;;;;;6198079;23;19932;-79
2023/02/10 15:48:16;;;;;;;;;;;;;;;;;;6196119;23;19975;-78
2023/02/10 15:50:41;;;;;;;;;;;;;;;;;;6195964;23;19957;-79
2023/02/10 15:53:07;;;;;;;;;;;;;;;;;;6171580;23;19928;-79
2023/02/10 15:55:35;;;;;;;;;;;;;;;;;;6198289;23;19919;-79
2023/02/10 15:58:03;;;;;;;;;;;;;;;;;;6172727;23;19987;-79
2023/02/10 16:00:29;;;;;;;;;;;;;;;;;;6197990;23;19915;-78
2023/02/10 16:02:55;;;;;;;;;;;;;;;;;;6197331;23;20297;-78
2023/02/10 16:05:21;;;;;;;;;;;;;;;;;;6197271;23;20322;-78
2023/02/10 16:07:46;;;;;;;;;;;;;;;;;;6199255;23;19909;-78
2023/02/10 16:10:12;;;;;;;;;;;;;;;;;;6195517;23;19936;-78
2023/02/10 16:12:37;;;;;;;;;;;;;;;;;;6168520;23;20239;-78
2023/02/10 16:15:03;;;;;;;;;;;;;;;;;;6168430;23;19912;-78
2023/02/10 16:17:32;;;;;;;;;;;;;;;;;;6195756;23;19927;-76
2023/02/10 16:19:57;;;;;;;;;;;;;;;;;;6196505;23;19915;-77
2023/02/10 16:22:23;;;;;;;;;;;;;;;;;;6196662;23;19991;-79
2023/02/10 16:24:51;;;;;;;;;;;;;;;;;;6165804;23;20598;-78
2023/02/10 16:27:17;;;;;;;;;;;;;;;;;;6142356;23;19908;-78
2023/02/10 16:29:43;;;;;;;;;;;;;;;;;;6142354;23;19955;-78
2023/02/10 16:32:10;;;;;;;;;;;;;;;;;;6142046;23;19920;-78
2023/02/10 16:34:36;;;;;;;;;;;;;;;;;;6140561;23;19916;-78
2023/02/10 16:37:02;;;;;;;;;;;;;;;;;;6166165;23;20282;-78
2023/02/10 16:39:27;;;;;;;;;;;;;;;;;;6188607;23;19909;-78
2023/02/10 16:41:53;;;;;;;;;;;;;;;;;;6166021;23;19909;-78
2023/02/10 16:44:19;;;;;;;;;;;;;;;;;;6141337;23;19935;-78